createdAt,value
2019-05-18T00:00:03.986Z,0.00
2019-05-18T00:01:03.977Z,0.00
2019-05-18T00:02:03.965Z,0.00
2019-05-18T00:03:03.957Z,0.00
2019-05-18T00:04:03.953Z,0.00
2019-05-18T00:05:03.939Z,0.00
2019-05-18T00:06:03.924Z,0.00
2019-05-18T00:07:03.916Z,0.00
2019-05-18T00:08:03.901Z,0.00
2019-05-18T00:09:03.891Z,0.00
2019-05-18T00:10:03.889Z,0.00
2019-05-18T00:11:03.877Z,0.00
2019-05-18T00:12:03.870Z,0.00
2019-05-18T00:13:03.860Z,0.00
2019-05-18T00:14:03.839Z,0.00
2019-05-18T00:15:03.838Z,0.00
2019-05-18T00:16:03.815Z,0.00
2019-05-18T00:17:03.831Z,0.00
2019-05-18T00:18:03.794Z,0.00
2019-05-18T00:19:03.788Z,0.00
2019-05-18T00:20:03.772Z,0.00
2019-05-18T00:21:03.762Z,0.00
2019-05-18T00:22:03.750Z,0.00
2019-05-18T00:23:03.740Z,0.00
2019-05-18T00:24:03.729Z,0.00
2019-05-18T00:25:03.717Z,0.00
2019-05-18T00:26:03.708Z,0.00
2019-05-18T00:27:03.699Z,0.00
2019-05-18T00:28:03.686Z,0.00
2019-05-18T00:29:03.680Z,0.00
2019-05-18T00:30:03.670Z,0.00
2019-05-18T00:31:03.658Z,0.00
2019-05-18T00:32:03.646Z,0.00
2019-05-18T00:33:03.643Z,0.00
2019-05-18T00:34:03.621Z,0.00
2019-05-18T00:35:03.624Z,0.00
2019-05-18T00:36:03.600Z,0.00
2019-05-18T00:37:03.590Z,0.00
2019-05-18T00:38:03.578Z,0.00
2019-05-18T00:39:03.568Z,0.00
2019-05-18T00:40:03.588Z,0.00
2019-05-18T00:41:03.552Z,0.00
2019-05-18T00:42:03.539Z,0.00
2019-05-18T00:43:03.530Z,0.00
2019-05-18T00:44:03.520Z,0.00
2019-05-18T00:45:03.514Z,0.00
2019-05-18T00:46:03.493Z,0.00
2019-05-18T00:47:03.482Z,0.00
2019-05-18T00:48:03.472Z,0.00
2019-05-18T00:49:03.464Z,0.00
2019-05-18T00:50:03.465Z,0.00
2019-05-18T00:51:03.450Z,0.00
2019-05-18T00:52:03.428Z,0.00
2019-05-18T00:53:03.418Z,0.00
2019-05-18T00:54:03.411Z,0.00
2019-05-18T00:55:03.396Z,0.00
2019-05-18T00:56:03.387Z,0.00
2019-05-18T00:57:03.384Z,0.00
2019-05-18T00:58:03.363Z,0.00
2019-05-18T00:59:03.356Z,0.00
2019-05-18T01:00:03.348Z,0.00
2019-05-18T01:01:03.345Z,0.00
2019-05-18T01:02:03.327Z,0.00
2019-05-18T01:03:03.311Z,0.00
2019-05-18T01:04:03.299Z,0.00
2019-05-18T01:05:03.293Z,0.00
2019-05-18T01:06:03.303Z,0.00
2019-05-18T01:07:03.269Z,0.00
2019-05-18T01:08:03.256Z,0.00
2019-05-18T01:09:03.252Z,0.00
2019-05-18T01:10:03.249Z,0.00
2019-05-18T01:11:03.230Z,0.00
2019-05-18T01:12:03.220Z,0.00
2019-05-18T01:13:03.202Z,0.00
2019-05-18T01:14:03.193Z,0.00
2019-05-18T01:15:03.195Z,0.00
2019-05-18T01:16:03.172Z,0.00
2019-05-18T01:17:03.164Z,0.00
2019-05-18T01:18:03.155Z,0.00
2019-05-18T01:19:03.139Z,0.00
2019-05-18T01:20:03.129Z,0.00
2019-05-18T01:21:03.119Z,0.00
2019-05-18T01:22:03.107Z,0.00
2019-05-18T01:23:03.111Z,0.00
2019-05-18T01:24:03.087Z,0.00
2019-05-18T01:25:03.083Z,0.00
2019-05-18T01:26:03.072Z,0.00
2019-05-18T01:27:03.059Z,0.00
2019-05-18T01:28:03.049Z,0.00
2019-05-18T01:29:03.033Z,0.00
2019-05-18T01:30:03.037Z,0.00
2019-05-18T01:31:03.031Z,0.00
2019-05-18T01:32:03.005Z,0.00
2019-05-18T01:33:02.990Z,0.00
2019-05-18T01:34:02.981Z,0.00
2019-05-18T01:35:03.004Z,0.00
2019-05-18T01:36:02.969Z,0.00
2019-05-18T01:37:02.946Z,0.00
2019-05-18T01:38:02.961Z,0.00
2019-05-18T01:39:02.924Z,0.00
2019-05-18T01:40:02.914Z,0.00
2019-05-18T01:41:02.907Z,0.00
2019-05-18T01:42:02.893Z,0.00
2019-05-18T01:43:02.883Z,0.00
2019-05-18T01:44:02.883Z,0.00
2019-05-18T01:45:15.739Z,0.00
2019-05-18T01:46:03.849Z,0.00
2019-05-18T01:47:02.844Z,0.00
2019-05-18T01:48:13.314Z,0.00
2019-05-18T01:49:03.817Z,0.00
2019-05-18T01:50:02.820Z,0.00
2019-05-18T01:51:02.799Z,0.00
2019-05-18T01:52:02.906Z,0.00
2019-05-18T01:53:02.786Z,0.00
2019-05-18T01:54:02.766Z,0.00
2019-05-18T01:55:02.761Z,0.00
2019-05-18T01:56:02.744Z,0.00
2019-05-18T01:57:02.745Z,0.00
2019-05-18T01:58:02.723Z,0.00
2019-05-18T01:59:02.710Z,0.00
2019-05-18T02:00:02.820Z,0.00
2019-05-18T02:01:02.703Z,0.00
2019-05-18T02:02:02.681Z,0.00
2019-05-18T02:03:02.690Z,0.00
2019-05-18T02:04:02.656Z,0.00
2019-05-18T02:05:02.691Z,0.00
2019-05-18T02:06:02.653Z,0.00
2019-05-18T02:07:02.670Z,0.00
2019-05-18T02:08:02.613Z,0.00
2019-05-18T02:09:02.605Z,0.00
2019-05-18T02:10:02.784Z,0.00
2019-05-18T02:11:02.617Z,0.00
2019-05-18T02:12:02.588Z,0.00
2019-05-18T02:13:02.906Z,0.00
2019-05-18T02:14:02.570Z,0.00
2019-05-18T02:15:02.540Z,0.00
2019-05-18T02:16:02.531Z,0.00
2019-05-18T02:17:02.516Z,0.00
2019-05-18T02:18:02.509Z,0.00
2019-05-18T02:19:02.495Z,0.00
2019-05-18T02:20:02.485Z,0.00
2019-05-18T02:21:02.472Z,0.00
2019-05-18T02:22:02.470Z,0.00
2019-05-18T02:23:02.453Z,0.00
2019-05-18T02:24:02.498Z,0.00
2019-05-18T02:25:02.427Z,0.00
2019-05-18T02:26:02.418Z,0.00
2019-05-18T02:27:02.432Z,0.00
2019-05-18T02:28:02.398Z,0.00
2019-05-18T02:29:02.386Z,0.00
2019-05-18T02:30:02.399Z,0.00
2019-05-18T02:31:02.377Z,0.00
2019-05-18T02:32:02.353Z,0.00
2019-05-18T02:33:02.423Z,0.00
2019-05-18T02:34:02.333Z,0.00
2019-05-18T02:35:02.343Z,0.00
2019-05-18T02:36:02.311Z,0.00
2019-05-18T02:37:02.310Z,0.00
2019-05-18T02:38:02.315Z,0.00
2019-05-18T02:39:02.277Z,0.00
2019-05-18T02:40:02.273Z,0.00
2019-05-18T02:41:02.282Z,0.00
2019-05-18T02:42:02.256Z,0.00
2019-05-18T02:43:02.239Z,0.00
2019-05-18T02:44:02.243Z,0.00
2019-05-18T02:45:02.229Z,0.00
2019-05-18T02:46:02.207Z,0.00
2019-05-18T02:47:02.188Z,0.00
2019-05-18T02:48:02.189Z,0.00
2019-05-18T02:49:02.175Z,0.00
2019-05-18T02:50:02.179Z,0.00
2019-05-18T02:51:02.146Z,0.00
2019-05-18T02:52:02.131Z,4.00
2019-05-18T02:53:02.144Z,4.00
2019-05-18T02:54:02.119Z,4.00
2019-05-18T02:55:02.125Z,4.00
2019-05-18T02:56:02.091Z,4.00
2019-05-18T02:57:02.099Z,0.00
2019-05-18T02:58:02.076Z,4.00
2019-05-18T02:59:02.067Z,4.00
2019-05-18T03:00:02.070Z,4.00
2019-05-18T03:01:02.036Z,4.00
2019-05-18T03:02:02.022Z,4.00
2019-05-18T03:03:02.029Z,4.00
2019-05-18T03:04:02.002Z,4.00
2019-05-18T03:05:01.992Z,4.00
2019-05-18T03:06:01.989Z,8.00
2019-05-18T03:07:01.968Z,8.00
2019-05-18T03:08:01.981Z,4.00
2019-05-18T03:09:01.952Z,8.00
2019-05-18T03:10:01.986Z,8.00
2019-05-18T03:11:01.929Z,12.00
2019-05-18T03:12:01.914Z,8.00
2019-05-18T03:13:01.905Z,12.00
2019-05-18T03:14:02.002Z,12.00
2019-05-18T03:15:01.922Z,12.00
2019-05-18T03:16:01.883Z,12.00
2019-05-18T03:17:01.871Z,12.00
2019-05-18T03:18:01.854Z,16.00
2019-05-18T03:19:07.973Z,16.00
2019-05-18T03:20:02.831Z,16.00
2019-05-18T03:21:01.839Z,16.00
2019-05-18T03:22:01.817Z,16.00
2019-05-18T03:23:01.795Z,20.00
2019-05-18T03:24:01.788Z,20.00
2019-05-18T03:25:01.775Z,20.00
2019-05-18T03:26:01.790Z,24.00
2019-05-18T03:27:01.756Z,24.00
2019-05-18T03:28:01.743Z,28.00
2019-05-18T03:29:01.731Z,28.00
2019-05-18T03:30:01.746Z,32.00
2019-05-18T03:31:01.748Z,32.00
2019-05-18T03:32:01.704Z,32.00
2019-05-18T03:33:01.687Z,32.00
2019-05-18T03:34:01.692Z,36.00
2019-05-18T03:35:01.808Z,36.00
2019-05-18T03:36:01.667Z,40.00
2019-05-18T03:37:01.649Z,40.00
2019-05-18T03:38:01.633Z,40.00
2019-05-18T03:39:01.641Z,40.00
2019-05-18T03:40:01.609Z,44.00
2019-05-18T03:41:01.603Z,48.00
2019-05-18T03:42:01.590Z,48.00
2019-05-18T03:43:01.588Z,52.00
2019-05-18T03:44:01.573Z,48.00
2019-05-18T03:45:01.569Z,52.00
2019-05-18T03:46:01.553Z,56.00
2019-05-18T03:47:01.533Z,56.00
2019-05-18T03:48:01.521Z,60.00
2019-05-18T03:49:01.512Z,60.00
2019-05-18T03:50:01.508Z,60.00
2019-05-18T03:51:01.490Z,64.00
2019-05-18T03:52:01.478Z,64.00
2019-05-18T03:53:01.483Z,68.00
2019-05-18T03:54:01.455Z,68.00
2019-05-18T03:55:01.452Z,72.00
2019-05-18T03:56:01.440Z,72.00
2019-05-18T03:57:01.422Z,76.00
2019-05-18T03:58:01.417Z,76.00
2019-05-18T03:59:01.404Z,80.00
2019-05-18T04:00:01.460Z,80.00
2019-05-18T04:01:01.378Z,80.00
2019-05-18T04:02:01.375Z,84.00
2019-05-18T04:03:01.362Z,88.00
2019-05-18T04:04:01.350Z,84.00
2019-05-18T04:05:01.337Z,88.00
2019-05-18T04:06:01.406Z,92.00
2019-05-18T04:07:01.328Z,96.00
2019-05-18T04:08:01.303Z,92.00
2019-05-18T04:09:01.306Z,100.00
2019-05-18T04:10:01.314Z,100.00
2019-05-18T04:11:01.271Z,100.00
2019-05-18T04:12:01.257Z,104.00
2019-05-18T04:13:01.246Z,104.00
2019-05-18T04:14:01.246Z,104.00
2019-05-18T04:15:01.223Z,104.00
2019-05-18T04:16:01.213Z,100.00
2019-05-18T04:17:01.202Z,104.00
2019-05-18T04:18:01.195Z,104.00
2019-05-18T04:19:01.179Z,104.00
2019-05-18T04:20:01.190Z,104.00
2019-05-18T04:21:01.159Z,108.00
2019-05-18T04:22:01.152Z,108.00
2019-05-18T04:23:01.140Z,108.00
2019-05-18T04:24:01.128Z,104.00
2019-05-18T04:25:01.117Z,100.00
2019-05-18T04:26:01.116Z,104.00
2019-05-18T04:27:01.091Z,100.00
2019-05-18T04:28:01.082Z,100.00
2019-05-18T04:29:01.074Z,100.00
2019-05-18T04:30:01.086Z,100.00
2019-05-18T04:31:01.050Z,92.00
2019-05-18T04:32:01.037Z,88.00
2019-05-18T04:33:01.023Z,88.00
2019-05-18T04:34:01.021Z,92.00
2019-05-18T04:35:01.002Z,96.00
2019-05-18T04:36:00.998Z,96.00
2019-05-18T04:37:00.984Z,100.00
2019-05-18T04:38:00.975Z,100.00
2019-05-18T04:39:00.961Z,104.00
2019-05-18T04:40:00.947Z,108.00
2019-05-18T04:41:00.942Z,112.00
2019-05-18T04:42:00.925Z,116.00
2019-05-18T04:43:00.925Z,116.00
2019-05-18T04:44:00.904Z,120.00
2019-05-18T04:45:00.892Z,128.00
2019-05-18T04:46:00.881Z,124.00
2019-05-18T04:47:00.875Z,124.00
2019-05-18T04:48:00.858Z,128.00
2019-05-18T04:49:00.850Z,132.00
2019-05-18T04:50:05.015Z,132.00
2019-05-18T04:51:00.826Z,132.00
2019-05-18T04:52:00.820Z,140.00
2019-05-18T04:53:00.835Z,160.00
2019-05-18T04:54:00.795Z,152.00
2019-05-18T04:55:00.791Z,152.00
2019-05-18T04:56:00.771Z,160.00
2019-05-18T04:57:00.762Z,176.00
2019-05-18T04:58:00.753Z,192.00
2019-05-18T04:59:00.744Z,196.00
2019-05-18T05:00:00.730Z,184.00
2019-05-18T05:01:00.719Z,180.00
2019-05-18T05:02:00.706Z,184.00
2019-05-18T05:03:00.698Z,192.00
2019-05-18T05:04:00.905Z,196.00
2019-05-18T05:05:00.674Z,200.00
2019-05-18T05:06:00.665Z,204.00
2019-05-18T05:07:00.655Z,204.00
2019-05-18T05:08:00.642Z,212.00
2019-05-18T05:09:00.630Z,208.00
2019-05-18T05:10:00.622Z,212.00
2019-05-18T05:11:00.608Z,224.00
2019-05-18T05:12:00.599Z,248.00
2019-05-18T05:13:00.586Z,284.00
2019-05-18T05:14:00.575Z,332.00
2019-05-18T05:15:00.566Z,372.00
2019-05-18T05:16:00.596Z,412.00
2019-05-18T05:17:00.548Z,452.00
2019-05-18T05:18:00.532Z,492.00
2019-05-18T05:19:00.523Z,524.00
2019-05-18T05:20:00.510Z,544.00
2019-05-18T05:21:00.501Z,560.00
2019-05-18T05:22:00.488Z,576.00
2019-05-18T05:23:00.481Z,592.00
2019-05-18T05:24:00.472Z,600.00
2019-05-18T05:25:00.455Z,608.00
2019-05-18T05:26:00.447Z,612.00
2019-05-18T05:27:00.440Z,620.00
2019-05-18T05:28:00.421Z,624.00
2019-05-18T05:29:00.411Z,628.00
2019-05-18T05:30:00.400Z,628.00
2019-05-18T05:31:00.388Z,624.00
2019-05-18T05:32:00.379Z,628.00
2019-05-18T05:33:00.369Z,628.00
2019-05-18T05:34:00.357Z,624.00
2019-05-18T05:35:00.371Z,624.00
2019-05-18T05:36:00.334Z,628.00
2019-05-18T05:37:00.323Z,628.00
2019-05-18T05:38:00.315Z,628.00
2019-05-18T05:39:00.302Z,624.00
2019-05-18T05:40:00.421Z,632.00
2019-05-18T05:41:00.296Z,640.00
2019-05-18T05:42:00.271Z,644.00
2019-05-18T05:43:00.260Z,648.00
2019-05-18T05:44:00.253Z,648.00
2019-05-18T05:45:00.237Z,660.00
2019-05-18T05:46:00.229Z,660.00
2019-05-18T05:47:00.216Z,664.00
2019-05-18T05:48:00.222Z,664.00
2019-05-18T05:49:00.197Z,664.00
2019-05-18T05:50:00.183Z,660.00
2019-05-18T05:51:00.172Z,672.00
2019-05-18T05:52:00.167Z,676.00
2019-05-18T05:53:00.153Z,680.00
2019-05-18T05:54:00.140Z,688.00
2019-05-18T05:55:00.134Z,684.00
2019-05-18T05:56:00.133Z,692.00
2019-05-18T05:57:00.118Z,696.00
2019-05-18T05:58:00.100Z,696.00
2019-05-18T05:59:00.146Z,696.00
2019-05-18T06:00:00.078Z,700.00
2019-05-18T06:01:00.069Z,704.00
2019-05-18T06:02:00.078Z,708.00
2019-05-18T06:03:00.048Z,712.00
2019-05-18T06:04:00.035Z,720.00
2019-05-18T06:05:00.023Z,720.00
2019-05-18T06:06:00.013Z,720.00
2019-05-18T06:07:00.011Z,724.00
2019-05-18T06:07:59.999Z,728.00
2019-05-18T06:08:59.988Z,728.00
2019-05-18T06:09:59.974Z,732.00
2019-05-18T06:10:59.962Z,728.00
2019-05-18T06:11:59.956Z,728.00
2019-05-18T06:12:59.942Z,728.00
2019-05-18T06:13:59.931Z,732.00
2019-05-18T06:14:59.923Z,732.00
2019-05-18T06:15:59.908Z,736.00
2019-05-18T06:16:59.898Z,736.00
2019-05-18T06:17:59.909Z,740.00
2019-05-18T06:18:59.881Z,740.00
2019-05-18T06:19:59.865Z,740.00
2019-05-18T06:20:59.853Z,744.00
2019-05-18T06:21:59.842Z,744.00
2019-05-18T06:22:59.834Z,744.00
2019-05-18T06:23:59.820Z,752.00
2019-05-18T06:24:59.811Z,752.00
2019-05-18T06:25:59.801Z,760.00
2019-05-18T06:26:59.791Z,764.00
2019-05-18T06:27:59.789Z,760.00
2019-05-18T06:28:59.768Z,764.00
2019-05-18T06:29:59.756Z,768.00
2019-05-18T06:30:59.746Z,768.00
2019-05-18T06:31:59.737Z,776.00
2019-05-18T06:32:59.730Z,784.00
2019-05-18T06:33:59.762Z,788.00
2019-05-18T06:34:59.703Z,788.00
2019-05-18T06:35:59.690Z,796.00
2019-05-18T06:36:59.684Z,804.00
2019-05-18T06:37:59.670Z,808.00
2019-05-18T06:38:59.661Z,812.00
2019-05-18T06:39:59.675Z,820.00
2019-05-18T06:40:59.638Z,824.00
2019-05-18T06:41:59.625Z,832.00
2019-05-18T06:42:59.623Z,836.00
2019-05-18T06:43:59.604Z,840.00
2019-05-18T06:44:59.593Z,848.00
2019-05-18T06:45:59.587Z,852.00
2019-05-18T06:46:59.572Z,852.00
2019-05-18T06:47:59.565Z,860.00
2019-05-18T06:48:59.551Z,860.00
2019-05-18T06:49:59.543Z,868.00
2019-05-18T06:51:07.242Z,872.00
2019-05-18T06:52:00.522Z,876.00
2019-05-18T06:52:59.507Z,884.00
2019-05-18T06:53:59.495Z,888.00
2019-05-18T06:54:59.488Z,888.00
2019-05-18T06:55:59.473Z,896.00
2019-05-18T06:56:59.468Z,904.00
2019-05-18T06:57:59.453Z,912.00
2019-05-18T06:58:59.444Z,920.00
2019-05-18T06:59:59.432Z,924.00
2019-05-18T07:00:59.435Z,928.00
2019-05-18T07:01:59.405Z,940.00
2019-05-18T07:02:59.395Z,944.00
2019-05-18T07:03:59.388Z,952.00
2019-05-18T07:04:59.373Z,960.00
2019-05-18T07:05:59.363Z,976.00
2019-05-18T07:06:59.354Z,992.00
2019-05-18T07:07:59.340Z,992.00
2019-05-18T07:08:59.333Z,1000.00
2019-05-18T07:09:59.323Z,1020.00
2019-05-18T07:10:59.306Z,1020.00
2019-05-18T07:11:59.295Z,1028.00
2019-05-18T07:12:59.287Z,1044.00
2019-05-18T07:13:59.275Z,1048.00
2019-05-18T07:15:00.538Z,1048.00
2019-05-18T07:15:59.254Z,1048.00
2019-05-18T07:16:59.242Z,1056.00
2019-05-18T07:17:59.230Z,1060.00
2019-05-18T07:18:59.221Z,1068.00
2019-05-18T07:19:59.206Z,1072.00
2019-05-18T07:20:59.199Z,1072.00
2019-05-18T07:21:59.191Z,1080.00
2019-05-18T07:22:59.173Z,1084.00
2019-05-18T07:23:59.164Z,1088.00
2019-05-18T07:24:59.150Z,1088.00
2019-05-18T07:25:59.140Z,1096.00
2019-05-18T07:26:59.128Z,1096.00
2019-05-18T07:27:59.118Z,1112.00
2019-05-18T07:28:59.110Z,1120.00
2019-05-18T07:29:59.096Z,1124.00
2019-05-18T07:30:59.113Z,1140.00
2019-05-18T07:31:59.103Z,1148.00
2019-05-18T07:32:59.063Z,1148.00
2019-05-18T07:33:59.051Z,1156.00
2019-05-18T07:34:59.049Z,1148.00
2019-05-18T07:35:59.107Z,1160.00
2019-05-18T07:36:59.023Z,1180.00
2019-05-18T07:37:59.016Z,1200.00
2019-05-18T07:38:58.997Z,1240.00
2019-05-18T07:39:58.990Z,1252.00
2019-05-18T07:40:58.973Z,1260.00
2019-05-18T07:41:58.966Z,1216.00
2019-05-18T07:42:58.986Z,1232.00
2019-05-18T07:43:58.940Z,1232.00
2019-05-18T07:44:58.930Z,1256.00
2019-05-18T07:45:58.918Z,1244.00
2019-05-18T07:46:58.909Z,1244.00
2019-05-18T07:47:58.896Z,1256.00
2019-05-18T07:48:58.888Z,1264.00
2019-05-18T07:49:58.885Z,1248.00
2019-05-18T07:50:58.866Z,1256.00
2019-05-18T07:51:58.853Z,1260.00
2019-05-18T07:52:58.843Z,1264.00
2019-05-18T07:53:58.834Z,1272.00
2019-05-18T07:54:58.822Z,1256.00
2019-05-18T07:55:58.819Z,1248.00
2019-05-18T07:56:58.799Z,1208.00
2019-05-18T07:57:58.786Z,1280.00
2019-05-18T07:58:58.777Z,1292.00
2019-05-18T07:59:58.764Z,1300.00
2019-05-18T08:00:58.753Z,1332.00
2019-05-18T08:01:58.744Z,1348.00
2019-05-18T08:02:58.732Z,1360.00
2019-05-18T08:03:58.776Z,1372.00
2019-05-18T08:04:58.715Z,1392.00
2019-05-18T08:05:58.729Z,1416.00
2019-05-18T08:06:58.687Z,1424.00
2019-05-18T08:07:58.957Z,1448.00
2019-05-18T08:08:58.710Z,1456.00
2019-05-18T08:09:58.654Z,1476.00
2019-05-18T08:10:58.654Z,1516.00
2019-05-18T08:11:58.630Z,1556.00
2019-05-18T08:12:58.622Z,1584.00
2019-05-18T08:13:58.609Z,1608.00
2019-05-18T08:14:58.601Z,1624.00
2019-05-18T08:15:58.590Z,1660.00
2019-05-18T08:16:58.578Z,1708.00
2019-05-18T08:17:58.564Z,1768.00
2019-05-18T08:18:58.555Z,1816.00
2019-05-18T08:19:58.542Z,1924.00
2019-05-18T08:20:58.532Z,2036.00
2019-05-18T08:21:58.546Z,2196.00
2019-05-18T08:22:58.510Z,2452.00
2019-05-18T08:23:58.508Z,5748.00
2019-05-18T08:24:58.492Z,24960.00
2019-05-18T08:25:58.477Z,43968.00
2019-05-18T08:27:01.967Z,47968.00
2019-05-18T08:27:58.458Z,48736.00
2019-05-18T08:28:58.445Z,47392.00
2019-05-18T08:29:58.441Z,45120.00
2019-05-18T08:30:58.425Z,45024.00
2019-05-18T08:31:58.662Z,46400.00
2019-05-18T08:32:58.406Z,46624.00
2019-05-18T08:33:58.624Z,45024.00
2019-05-18T08:34:58.382Z,45184.00
2019-05-18T08:35:58.442Z,46944.00
2019-05-18T08:36:58.362Z,46976.00
2019-05-18T08:37:58.374Z,48448.00
2019-05-18T08:38:58.339Z,50112.00
2019-05-18T08:39:58.332Z,49248.00
2019-05-18T08:40:58.317Z,48064.00
2019-05-18T08:41:58.313Z,48832.00
2019-05-18T08:42:58.300Z,47392.00
2019-05-18T08:43:58.285Z,47776.00
2019-05-18T08:44:58.282Z,45664.00
2019-05-18T08:45:58.266Z,45664.00
2019-05-18T08:46:58.265Z,45184.00
2019-05-18T08:47:58.244Z,33728.00
2019-05-18T08:48:58.232Z,12068.00
2019-05-18T08:49:58.236Z,2096.00
2019-05-18T08:50:58.218Z,1720.00
2019-05-18T08:52:07.949Z,1516.00
2019-05-18T08:52:59.185Z,1424.00
2019-05-18T08:53:58.177Z,1368.00
2019-05-18T08:54:58.166Z,1320.00
2019-05-18T08:55:58.159Z,1296.00
2019-05-18T08:56:58.146Z,1248.00
2019-05-18T08:57:58.136Z,1228.00
2019-05-18T08:58:58.125Z,1192.00
2019-05-18T08:59:58.112Z,1168.00
2019-05-18T09:00:58.105Z,1152.00
2019-05-18T09:01:58.090Z,1148.00
2019-05-18T09:02:58.088Z,1144.00
2019-05-18T09:03:58.243Z,1148.00
2019-05-18T09:04:58.125Z,1104.00
2019-05-18T09:05:58.047Z,1092.00
2019-05-18T09:06:58.053Z,1096.00
2019-05-18T09:07:58.116Z,1092.00
2019-05-18T09:08:58.020Z,1072.00
2019-05-18T09:09:58.229Z,1064.00
2019-05-18T09:10:57.997Z,1100.00
2019-05-18T09:11:57.983Z,1192.00
2019-05-18T09:12:57.975Z,1208.00
2019-05-18T09:13:57.970Z,1100.00
2019-05-18T09:14:57.955Z,1044.00
2019-05-18T09:15:57.947Z,1000.00
2019-05-18T09:16:57.935Z,992.00
2019-05-18T09:17:57.921Z,988.00
2019-05-18T09:18:57.913Z,992.00
2019-05-18T09:19:57.899Z,1024.00
2019-05-18T09:20:57.889Z,1404.00
2019-05-18T09:21:57.877Z,596.00
2019-05-18T09:22:57.866Z,1000.00
2019-05-18T09:23:57.860Z,1048.00
2019-05-18T09:24:57.844Z,1096.00
2019-05-18T09:25:57.841Z,940.00
2019-05-18T09:26:57.861Z,916.00
2019-05-18T09:27:57.818Z,888.00
2019-05-18T09:28:57.802Z,868.00
2019-05-18T09:29:57.791Z,860.00
2019-05-18T09:30:57.779Z,852.00
2019-05-18T09:31:57.769Z,868.00
2019-05-18T09:32:57.761Z,896.00
2019-05-18T09:33:57.747Z,924.00
2019-05-18T09:34:57.736Z,864.00
2019-05-18T09:35:57.726Z,820.00
2019-05-18T09:36:57.713Z,812.00
2019-05-18T09:37:57.703Z,816.00
2019-05-18T09:38:57.726Z,800.00
2019-05-18T09:39:57.683Z,780.00
2019-05-18T09:40:57.670Z,792.00
2019-05-18T09:41:57.660Z,788.00
2019-05-18T09:42:57.652Z,772.00
2019-05-18T09:43:57.649Z,788.00
2019-05-18T09:44:57.629Z,792.00
2019-05-18T09:45:57.619Z,772.00
2019-05-18T09:46:57.607Z,768.00
2019-05-18T09:47:57.599Z,776.00
2019-05-18T09:48:57.587Z,784.00
2019-05-18T09:49:57.576Z,772.00
2019-05-18T09:50:57.568Z,768.00
2019-05-18T09:51:57.555Z,772.00
2019-05-18T09:52:57.542Z,740.00
2019-05-18T09:53:57.530Z,716.00
2019-05-18T09:54:57.519Z,712.00
2019-05-18T09:55:57.515Z,712.00
2019-05-18T09:56:57.496Z,708.00
2019-05-18T09:57:57.485Z,724.00
2019-05-18T09:58:57.523Z,680.00
2019-05-18T09:59:57.471Z,672.00
2019-05-18T10:00:57.454Z,664.00
2019-05-18T10:01:57.441Z,628.00
2019-05-18T10:02:57.431Z,668.00
2019-05-18T10:03:57.419Z,672.00
2019-05-18T10:04:57.411Z,664.00
2019-05-18T10:05:57.397Z,656.00
2019-05-18T10:06:57.387Z,632.00
2019-05-18T10:07:57.380Z,632.00
2019-05-18T10:08:57.419Z,636.00
2019-05-18T10:09:57.351Z,648.00
2019-05-18T10:10:57.343Z,652.00
2019-05-18T10:11:57.335Z,680.00
2019-05-18T10:12:57.320Z,756.00
2019-05-18T10:13:57.310Z,852.00
2019-05-18T10:14:57.297Z,332.00
2019-05-18T10:15:57.286Z,580.00
2019-05-18T10:16:57.284Z,580.00
2019-05-18T10:17:57.264Z,568.00
2019-05-18T10:18:57.257Z,572.00
2019-05-18T10:19:57.244Z,572.00
2019-05-18T10:20:57.247Z,592.00
2019-05-18T10:21:57.235Z,576.00
2019-05-18T10:23:11.980Z,600.00
2019-05-18T10:23:58.199Z,624.00
2019-05-18T10:24:57.189Z,624.00
2019-05-18T10:25:57.180Z,644.00
2019-05-18T10:26:57.169Z,688.00
2019-05-18T10:27:57.160Z,792.00
2019-05-18T10:28:57.147Z,956.00
2019-05-18T10:29:57.139Z,808.00
2019-05-18T10:30:57.126Z,744.00
2019-05-18T10:31:57.114Z,852.00
2019-05-18T10:32:57.102Z,1004.00
2019-05-18T10:33:57.094Z,924.00
2019-05-18T10:34:57.080Z,948.00
2019-05-18T10:35:57.072Z,772.00
2019-05-18T10:36:57.058Z,632.00
2019-05-18T10:37:57.050Z,796.00
2019-05-18T10:38:57.038Z,736.00
2019-05-18T10:39:57.028Z,540.00
2019-05-18T10:40:57.015Z,612.00
2019-05-18T10:41:57.012Z,544.00
2019-05-18T10:42:56.999Z,688.00
2019-05-18T10:43:57.062Z,696.00
2019-05-18T10:44:56.974Z,640.00
2019-05-18T10:45:56.962Z,688.00
2019-05-18T10:46:56.951Z,528.00
2019-05-18T10:47:56.956Z,676.00
2019-05-18T10:48:56.929Z,708.00
2019-05-18T10:49:56.918Z,384.00
2019-05-18T10:50:56.919Z,436.00
2019-05-18T10:51:56.900Z,568.00
2019-05-18T10:52:56.887Z,652.00
2019-05-18T10:53:56.877Z,804.00
2019-05-18T10:54:56.866Z,840.00
2019-05-18T10:55:56.852Z,832.00
2019-05-18T10:56:56.843Z,596.00
2019-05-18T10:57:56.844Z,536.00
2019-05-18T10:58:56.818Z,732.00
2019-05-18T10:59:56.812Z,852.00
2019-05-18T11:00:56.797Z,788.00
2019-05-18T11:01:56.787Z,700.00
2019-05-18T11:02:56.777Z,636.00
2019-05-18T11:03:56.763Z,600.00
2019-05-18T11:04:56.754Z,624.00
2019-05-18T11:05:56.743Z,800.00
2019-05-18T11:06:56.731Z,800.00
2019-05-18T11:07:56.728Z,676.00
2019-05-18T11:08:56.709Z,508.00
2019-05-18T11:09:56.700Z,612.00
2019-05-18T11:10:56.687Z,704.00
2019-05-18T11:11:56.676Z,496.00
2019-05-18T11:12:56.666Z,496.00
2019-05-18T11:13:56.655Z,632.00
2019-05-18T11:14:56.703Z,536.00
2019-05-18T11:15:56.634Z,436.00
2019-05-18T11:16:56.621Z,416.00
2019-05-18T11:17:56.613Z,384.00
2019-05-18T11:18:56.601Z,540.00
2019-05-18T11:19:56.590Z,500.00
2019-05-18T11:20:56.578Z,436.00
2019-05-18T11:21:56.575Z,420.00
2019-05-18T11:22:56.562Z,296.00
2019-05-18T11:23:56.546Z,288.00
2019-05-18T11:24:56.534Z,276.00
2019-05-18T11:25:56.560Z,284.00
2019-05-18T11:26:56.518Z,300.00
2019-05-18T11:27:56.507Z,312.00
2019-05-18T11:28:56.559Z,420.00
2019-05-18T11:29:56.479Z,508.00
2019-05-18T11:30:56.469Z,508.00
2019-05-18T11:31:56.460Z,512.00
2019-05-18T11:32:56.446Z,464.00
2019-05-18T11:33:56.439Z,588.00
2019-05-18T11:34:56.435Z,772.00
2019-05-18T11:35:56.438Z,784.00
2019-05-18T11:36:56.404Z,736.00
2019-05-18T11:37:56.791Z,660.00
2019-05-18T11:38:56.383Z,612.00
2019-05-18T11:39:56.370Z,620.00
2019-05-18T11:40:56.361Z,616.00
2019-05-18T11:41:56.348Z,596.00
2019-05-18T11:42:56.338Z,612.00
2019-05-18T11:43:56.327Z,512.00
2019-05-18T11:44:56.317Z,408.00
2019-05-18T11:45:56.302Z,324.00
2019-05-18T11:46:56.295Z,312.00
2019-05-18T11:47:56.281Z,324.00
2019-05-18T11:48:56.271Z,520.00
2019-05-18T11:49:56.261Z,608.00
2019-05-18T11:50:56.249Z,600.00
2019-05-18T11:51:56.239Z,628.00
2019-05-18T11:52:56.251Z,420.00
2019-05-18T11:53:58.243Z,420.00
2019-05-18T11:54:56.204Z,516.00
2019-05-18T11:55:56.193Z,432.00
2019-05-18T11:56:56.197Z,344.00
2019-05-18T11:57:56.170Z,364.00
2019-05-18T11:58:56.159Z,416.00
2019-05-18T11:59:56.152Z,436.00
2019-05-18T12:00:56.142Z,432.00
2019-05-18T12:01:56.127Z,296.00
2019-05-18T12:02:56.122Z,336.00
2019-05-18T12:03:56.104Z,304.00
2019-05-18T12:04:56.159Z,320.00
2019-05-18T12:05:56.085Z,440.00
2019-05-18T12:06:57.012Z,388.00
2019-05-18T12:07:56.061Z,284.00
2019-05-18T12:08:58.620Z,240.00
2019-05-18T12:09:56.039Z,256.00
2019-05-18T12:10:56.367Z,276.00
2019-05-18T12:11:56.015Z,308.00
2019-05-18T12:12:56.004Z,328.00
2019-05-18T12:13:55.993Z,312.00
2019-05-18T12:14:55.986Z,288.00
2019-05-18T12:15:55.986Z,280.00
2019-05-18T12:16:55.960Z,284.00
2019-05-18T12:17:55.954Z,296.00
2019-05-18T12:18:57.659Z,304.00
2019-05-18T12:19:55.928Z,308.00
2019-05-18T12:20:55.914Z,328.00
2019-05-18T12:21:55.913Z,336.00
2019-05-18T12:22:55.899Z,328.00
2019-05-18T12:23:55.881Z,328.00
2019-05-18T12:24:55.873Z,316.00
2019-05-18T12:25:55.858Z,296.00
2019-05-18T12:26:55.849Z,300.00
2019-05-18T12:27:55.869Z,292.00
2019-05-18T12:28:55.824Z,284.00
2019-05-18T12:29:55.814Z,288.00
2019-05-18T12:30:55.805Z,296.00
2019-05-18T12:31:55.795Z,308.00
2019-05-18T12:32:55.784Z,312.00
2019-05-18T12:33:55.772Z,332.00
2019-05-18T12:34:55.759Z,372.00
2019-05-18T12:35:55.748Z,420.00
2019-05-18T12:36:55.736Z,476.00